createdAt,value
2023-10-20T00:00:38.385Z,94365.59
2023-10-20T00:03:05.088Z,94379.88
2023-10-20T00:05:31.747Z,94369.25
2023-10-20T00:07:58.589Z,94360.50
2023-10-20T00:10:25.508Z,94363.97
2023-10-20T00:12:52.234Z,94358.94
2023-10-20T00:15:21.302Z,94352.03
2023-10-20T00:17:48.082Z,94349.41
2023-10-20T00:20:14.755Z,94347.81
2023-10-20T00:22:41.822Z,94348.38
2023-10-20T00:25:08.450Z,94348.88
2023-10-20T00:27:35.776Z,94354.47
2023-10-20T00:30:03.800Z,94350.47
2023-10-20T00:32:32.273Z,94348.09
2023-10-20T00:34:58.945Z,94362.66
2023-10-20T00:37:26.255Z,94351.81
2023-10-20T00:39:52.849Z,94348.38
2023-10-20T00:42:19.376Z,94345.19
2023-10-20T00:44:45.930Z,94328.25
2023-10-20T00:47:12.473Z,94336.22
2023-10-20T00:49:39.071Z,94325.09
2023-10-20T00:52:05.662Z,94318.22
2023-10-20T00:54:32.541Z,94314.78
2023-10-20T00:56:59.270Z,94314.00
2023-10-20T00:59:25.882Z,94318.22
2023-10-20T01:01:52.420Z,94320.88
2023-10-20T01:04:20.703Z,94316.91
2023-10-20T01:06:49.406Z,94299.72
2023-10-20T01:09:26.339Z,94293.09
2023-10-20T01:11:53.247Z,94277.47
2023-10-20T01:14:19.891Z,94273.81
2023-10-20T01:16:46.756Z,94261.09
2023-10-20T01:19:13.294Z,94260.56
2023-10-20T01:21:39.820Z,94257.38
2023-10-20T01:24:06.588Z,94248.91
2023-10-20T01:26:33.149Z,94245.47
2023-10-20T01:28:59.925Z,94233.53
2023-10-20T01:31:26.661Z,94233.00
2023-10-20T01:33:53.259Z,94226.38
2023-10-20T01:36:19.854Z,94226.63
2023-10-20T01:38:46.334Z,94222.41
2023-10-20T01:41:12.940Z,94225.06
2023-10-20T01:43:39.477Z,94223.72
2023-10-20T01:46:06.030Z,94222.66
2023-10-20T01:48:32.557Z,94220.53
2023-10-20T01:51:01.163Z,94224.00
2023-10-20T01:53:27.680Z,94217.13
2023-10-20T01:55:55.029Z,94213.38
2023-10-20T01:58:21.757Z,94219.22
2023-10-20T02:00:51.859Z,94206.50
2023-10-20T02:03:19.189Z,94204.91
2023-10-20T02:05:45.999Z,94209.94
2023-10-20T02:08:12.655Z,94204.34
2023-10-20T02:10:39.207Z,94194.72
2023-10-20T02:13:05.763Z,94194.16
2023-10-20T02:15:32.344Z,94181.75
2023-10-20T02:18:01.786Z,94183.59
2023-10-20T02:20:28.595Z,94183.03
2023-10-20T02:22:55.253Z,94179.31
2023-10-20T02:25:21.844Z,94174.03
2023-10-20T02:27:48.485Z,94169.25
2023-10-20T02:30:15.800Z,94159.41
2023-10-20T02:32:42.679Z,94156.47
2023-10-20T02:35:09.478Z,94142.44
2023-10-20T02:37:36.031Z,94151.16
2023-10-20T02:40:06.068Z,94139.44
2023-10-20T02:42:33.100Z,94131.47
2023-10-20T02:45:00.000Z,94137.06
2023-10-20T02:47:26.738Z,94135.19
2023-10-20T02:49:54.752Z,94129.97
2023-10-20T02:52:21.302Z,94129.41
2023-10-20T02:54:48.629Z,94131.53
2023-10-20T02:57:15.307Z,94124.66
2023-10-20T02:59:41.856Z,94116.72
2023-10-20T03:02:08.553Z,94108.97
2023-10-20T03:04:35.328Z,94098.38
2023-10-20T03:07:02.174Z,94089.91
2023-10-20T03:09:28.662Z,94087.03
2023-10-20T03:11:55.205Z,94083.81
2023-10-20T03:14:22.513Z,94068.47
2023-10-20T03:16:49.254Z,94060.81
2023-10-20T03:19:16.110Z,94052.06
2023-10-20T03:21:43.887Z,94056.91
2023-10-20T03:24:10.533Z,94055.81
2023-10-20T03:26:37.352Z,94054.03
2023-10-20T03:29:06.067Z,94037.06
2023-10-20T03:31:33.985Z,94026.75
2023-10-20T03:34:01.216Z,94001.88
2023-10-20T03:36:28.674Z,93991.34
2023-10-20T03:38:55.225Z,93993.78
2023-10-20T03:41:23.899Z,93990.09
2023-10-20T03:43:52.029Z,93987.47
2023-10-20T03:46:19.973Z,93997.25
2023-10-20T03:48:46.897Z,93996.47
2023-10-20T03:51:14.194Z,93983.03
2023-10-20T03:53:55.413Z,93995.00
2023-10-20T03:56:23.654Z,93996.84
2023-10-20T03:58:50.462Z,93988.59
2023-10-20T04:01:17.146Z,93978.81
2023-10-20T04:03:46.390Z,93974.88
2023-10-20T04:06:14.408Z,93993.91
2023-10-20T04:08:41.054Z,93978.88
2023-10-20T04:11:07.671Z,93970.66
2023-10-20T04:13:34.485Z,93960.84
2023-10-20T04:16:13.499Z,93944.94
2023-10-20T04:18:43.937Z,93941.22
2023-10-20T04:21:13.180Z,93917.09
2023-10-20T04:23:40.616Z,93902.25
2023-10-20T04:26:17.992Z,93903.03
2023-10-20T04:28:44.607Z,93916.28
2023-10-20T04:31:31.304Z,93903.06
2023-10-20T04:34:17.258Z,93896.19
2023-10-20T04:37:02.365Z,93891.97
2023-10-20T04:39:47.794Z,93884.09
2023-10-20T04:42:26.510Z,93885.16
2023-10-20T04:44:53.114Z,93878.22
2023-10-20T04:47:58.082Z,93869.72
2023-10-20T04:50:43.283Z,93854.69
2023-10-20T04:53:09.887Z,93851.75
2023-10-20T04:55:36.463Z,93850.97
2023-10-20T04:58:15.013Z,93847.53
2023-10-20T05:00:44.564Z,93840.16
2023-10-20T05:03:14.096Z,93835.63
2023-10-20T05:05:44.518Z,93817.59
2023-10-20T05:08:14.109Z,93806.44
2023-10-20T05:10:43.144Z,93802.72
2023-10-20T05:13:10.125Z,93803.78
2023-10-20T05:15:44.843Z,93801.91
2023-10-20T05:18:16.328Z,93787.75
2023-10-20T05:20:43.497Z,93795.19
2023-10-20T05:23:11.894Z,93786.19
2023-10-20T05:25:45.499Z,93778.28
2023-10-20T05:28:12.014Z,93782.28
2023-10-20T05:30:42.352Z,93762.75
2023-10-20T05:33:10.627Z,93758.31
2023-10-20T05:35:39.764Z,93753.31
2023-10-20T05:38:07.794Z,93747.72
2023-10-20T05:40:36.353Z,93738.41
2023-10-20T05:43:04.616Z,93740.78
2023-10-20T05:45:34.247Z,93741.56
2023-10-20T05:48:02.158Z,93733.91
2023-10-20T05:50:28.996Z,93731.84
2023-10-20T05:52:55.567Z,93735.34
2023-10-20T05:55:24.240Z,93701.16
2023-10-20T05:57:50.916Z,93688.13
2023-10-20T06:00:17.678Z,93702.22
2023-10-20T06:02:45.105Z,93716.56
2023-10-20T06:05:11.737Z,93721.88
2023-10-20T06:07:38.365Z,93724.50
2023-10-20T06:10:05.093Z,93727.66
2023-10-20T06:12:31.644Z,93720.88
2023-10-20T06:14:58.142Z,93716.44
2023-10-20T06:17:24.802Z,93709.84
2023-10-20T06:19:51.444Z,93699.84
2023-10-20T06:22:18.158Z,93687.09
2023-10-20T06:24:48.576Z,93690.81
2023-10-20T06:27:15.133Z,93693.50
2023-10-20T06:29:47.638Z,93691.16
2023-10-20T06:32:14.252Z,93694.66
2023-10-20T06:34:43.695Z,93687.78
2023-10-20T06:37:10.330Z,93687.06
2023-10-20T06:39:38.749Z,93689.47
2023-10-20T06:42:05.717Z,93697.69
2023-10-20T06:44:32.352Z,93698.47
2023-10-20T06:46:59.310Z,93700.59
2023-10-20T06:49:25.821Z,93700.84
2023-10-20T06:51:52.470Z,93689.75
2023-10-20T06:54:19.157Z,93682.63
2023-10-20T06:56:45.832Z,93680.25
2023-10-20T06:59:15.173Z,93680.81
2023-10-20T07:01:44.611Z,93679.03
2023-10-20T07:04:11.702Z,93681.19
2023-10-20T07:06:38.495Z,93672.75
2023-10-20T07:09:15.126Z,93675.81
2023-10-20T07:11:42.620Z,93677.47
2023-10-20T07:14:09.291Z,93658.94
2023-10-20T07:16:35.837Z,93659.44
2023-10-20T07:19:02.650Z,93662.16
2023-10-20T07:21:29.196Z,93643.16
2023-10-20T07:23:56.730Z,93651.34
2023-10-20T07:26:24.018Z,93656.41
2023-10-20T07:28:50.594Z,93662.75
2023-10-20T07:31:19.340Z,93657.47
2023-10-20T07:33:45.975Z,93645.81
2023-10-20T07:36:12.468Z,93645.81
2023-10-20T07:38:40.295Z,93643.75
2023-10-20T07:41:07.809Z,93636.88
2023-10-20T07:43:34.600Z,93635.81
2023-10-20T07:46:01.163Z,93646.91
2023-10-20T07:48:27.883Z,93645.59
2023-10-20T07:50:55.866Z,93645.59
2023-10-20T07:53:22.499Z,93651.69
2023-10-20T07:55:49.051Z,93656.19
2023-10-20T07:58:16.599Z,93646.41
2023-10-20T08:00:43.122Z,93650.91
2023-10-20T08:03:12.642Z,93644.75
2023-10-20T08:05:39.759Z,93644.22
2023-10-20T08:08:06.524Z,93647.88
2023-10-20T08:10:33.901Z,93650.53
2023-10-20T08:13:00.789Z,93664.31
2023-10-20T08:15:29.347Z,93664.81
2023-10-20T08:17:56.888Z,93658.44
2023-10-20T08:20:23.657Z,93655.28
2023-10-20T08:22:50.136Z,93654.94
2023-10-20T08:25:16.689Z,93663.16
2023-10-20T08:27:43.406Z,93660.00
2023-10-20T08:30:10.336Z,93662.38
2023-10-20T08:32:37.208Z,93663.78
2023-10-20T08:35:06.632Z,93668.81
2023-10-20T08:37:33.872Z,93664.84
2023-10-20T08:40:00.445Z,93662.72
2023-10-20T08:42:27.036Z,93666.41
2023-10-20T08:44:53.625Z,93665.88
2023-10-20T08:47:21.090Z,93666.38
2023-10-20T08:49:47.811Z,93660.59
2023-10-20T08:52:14.711Z,93669.53
2023-10-20T08:54:42.309Z,93679.81
2023-10-20T08:57:09.602Z,93666.53
2023-10-20T08:59:39.154Z,93682.97
2023-10-20T09:02:06.555Z,93699.06
2023-10-20T09:04:35.579Z,93698.78
2023-10-20T09:07:05.420Z,93686.19
2023-10-20T09:09:33.248Z,93672.09
2023-10-20T09:11:59.943Z,93665.94
2023-10-20T09:14:26.526Z,93654.03
2023-10-20T09:16:56.385Z,93661.91
2023-10-20T09:19:23.191Z,93665.63
2023-10-20T09:21:49.758Z,93666.41
2023-10-20T09:24:17.001Z,93671.69
2023-10-20T09:26:44.901Z,93669.91
2023-10-20T09:29:11.710Z,93678.91
2023-10-20T09:31:38.498Z,93677.31
2023-10-20T09:34:08.889Z,93673.97
2023-10-20T09:36:36.086Z,93667.94
2023-10-20T09:39:04.664Z,93674.31
2023-10-20T09:41:31.268Z,93653.72
2023-10-20T09:44:08.060Z,93671.16
2023-10-20T09:46:34.981Z,93676.97
2023-10-20T09:49:02.072Z,93676.75
2023-10-20T09:51:28.604Z,93682.28
2023-10-20T09:53:55.790Z,93675.88
2023-10-20T09:56:22.423Z,93666.75
2023-10-20T09:58:50.777Z,93667.03
2023-10-20T10:01:17.329Z,93666.97
2023-10-20T10:03:49.038Z,93657.41
2023-10-20T10:06:17.300Z,93658.69
2023-10-20T10:08:48.822Z,93649.97
2023-10-20T10:11:22.216Z,93644.59
2023-10-20T10:13:55.888Z,93634.72
2023-10-20T10:16:22.831Z,93628.44
2023-10-20T10:18:50.078Z,93623.94
2023-10-20T10:21:30.772Z,93617.00
2023-10-20T10:24:12.597Z,93616.44
2023-10-20T10:27:08.679Z,93623.72
2023-10-20T10:30:23.507Z,93603.81
2023-10-20T10:32:50.260Z,93595.84
2023-10-20T10:35:17.482Z,93584.66
2023-10-20T10:37:45.268Z,93580.06
2023-10-20T10:40:16.391Z,93584.00
2023-10-20T10:42:46.892Z,93572.84
2023-10-20T10:45:16.643Z,93576.66
2023-10-20T10:47:44.803Z,93575.97
2023-10-20T10:50:11.704Z,93579.88
2023-10-20T10:52:38.248Z,93572.06
2023-10-20T10:55:05.419Z,93560.47
2023-10-20T10:57:32.252Z,93566.31
2023-10-20T11:00:01.911Z,93557.38
2023-10-20T11:02:28.884Z,93559.84
2023-10-20T11:04:55.533Z,93563.06
2023-10-20T11:07:23.370Z,93568.69
2023-10-20T11:09:49.938Z,93565.56
2023-10-20T11:12:18.909Z,93564.63
2023-10-20T11:14:45.709Z,93573.97
2023-10-20T11:17:13.053Z,93576.16
2023-10-20T11:19:39.544Z,93583.22
2023-10-20T11:22:13.985Z,93590.47
2023-10-20T11:24:40.469Z,93595.28
2023-10-20T11:27:08.198Z,93594.00
2023-10-20T11:29:46.720Z,93590.75
2023-10-20T11:32:19.846Z,93583.50
2023-10-20T11:34:46.624Z,93575.41
2023-10-20T11:37:14.969Z,93581.31
2023-10-20T11:39:41.514Z,93585.34
2023-10-20T11:42:08.398Z,93578.25
2023-10-20T11:44:35.244Z,93569.28
2023-10-20T11:47:01.973Z,93558.94
2023-10-20T11:49:28.505Z,93564.19
2023-10-20T11:51:56.461Z,93562.56
2023-10-20T11:54:23.133Z,93560.03
2023-10-20T11:56:49.752Z,93559.09
2023-10-20T11:59:17.176Z,93559.09
2023-10-20T12:01:44.373Z,93545.84
2023-10-20T12:04:12.231Z,93540.25
2023-10-20T12:06:38.796Z,93534.72
2023-10-20T12:09:14.924Z,93541.13
2023-10-20T12:11:41.801Z,93534.06
2023-10-20T12:14:10.527Z,93536.50
2023-10-20T12:16:37.223Z,93520.91
2023-10-20T12:19:05.395Z,93530.25
2023-10-20T12:21:31.947Z,93537.78
2023-10-20T12:23:58.859Z,93547.88
2023-10-20T12:26:28.448Z,93552.56
2023-10-20T12:28:56.368Z,93554.13
2023-10-20T12:31:23.428Z,93556.00
2023-10-20T12:33:50.166Z,93553.94
2023-10-20T12:36:19.658Z,93547.03
2023-10-20T12:38:46.426Z,93534.88
2023-10-20T12:41:13.333Z,93538.59
2023-10-20T12:43:39.931Z,93538.25
2023-10-20T12:46:06.523Z,93531.53
2023-10-20T12:48:33.448Z,93529.56
2023-10-20T12:51:06.981Z,93535.44
2023-10-20T12:53:33.579Z,93517.75
2023-10-20T12:56:01.113Z,93522.56
2023-10-20T12:58:27.695Z,93526.56
2023-10-20T13:00:54.241Z,93525.00
2023-10-20T13:03:20.810Z,93531.47
2023-10-20T13:05:47.481Z,93536.56
2023-10-20T13:08:14.683Z,93539.47
2023-10-20T13:10:41.599Z,93538.47
2023-10-20T13:13:10.701Z,93541.13
2023-10-20T13:15:38.725Z,93550.63
2023-10-20T13:18:05.958Z,93546.59
2023-10-20T13:20:32.672Z,93549.00
2023-10-20T13:22:59.316Z,93553.13
2023-10-20T13:25:25.956Z,93541.09
2023-10-20T13:27:54.141Z,93550.88
2023-10-20T13:30:20.747Z,93552.34
2023-10-20T13:32:47.366Z,93548.13
2023-10-20T13:35:14.010Z,93553.72
2023-10-20T13:37:40.969Z,93547.91
2023-10-20T13:40:10.279Z,93550.03
2023-10-20T13:42:36.992Z,93545.03
2023-10-20T13:45:05.083Z,93534.75
2023-10-20T13:47:32.141Z,93536.31
2023-10-20T13:49:58.780Z,93541.59
2023-10-20T13:52:25.354Z,93546.91
2023-10-20T13:54:51.871Z,93542.19
2023-10-20T13:57:18.411Z,93541.41
2023-10-20T13:59:45.000Z,93536.59
2023-10-20T14:02:11.596Z,93549.06
2023-10-20T14:04:38.139Z,93549.84
2023-10-20T14:07:04.760Z,93566.50
2023-10-20T14:09:31.711Z,93571.00
2023-10-20T14:11:58.216Z,93572.88
2023-10-20T14:14:24.754Z,93562.78
2023-10-20T14:16:53.986Z,93551.41
2023-10-20T14:19:20.503Z,93572.88
2023-10-20T14:21:47.070Z,93584.53
2023-10-20T14:24:13.527Z,93601.19
2023-10-20T14:26:40.152Z,93602.53
2023-10-20T14:29:06.689Z,93600.31
2023-10-20T14:31:33.251Z,93605.69
2023-10-20T14:34:00.410Z,93596.69
2023-10-20T14:36:27.151Z,93587.09
2023-10-20T14:38:53.767Z,93584.97
2023-10-20T14:41:20.306Z,93589.69
2023-10-20T14:43:46.853Z,93593.31
2023-10-20T14:46:14.533Z,93605.13
2023-10-20T14:48:41.267Z,93607.47
2023-10-20T14:51:08.687Z,93612.91
2023-10-20T14:53:38.225Z,93601.94
2023-10-20T14:56:04.996Z,93595.88
2023-10-20T14:58:34.387Z,93598.38
2023-10-20T15:01:00.950Z,93616.03
2023-10-20T15:03:28.146Z,93617.03
2023-10-20T15:05:54.962Z,93616.53
2023-10-20T15:08:21.700Z,93617.91
2023-10-20T15:10:48.433Z,93621.34
2023-10-20T15:13:16.210Z,93611.03
2023-10-20T15:15:42.907Z,93603.09
2023-10-20T15:18:09.579Z,93620.84
2023-10-20T15:20:38.661Z,93613.38
2023-10-20T15:23:14.794Z,93621.91
2023-10-20T15:25:44.347Z,93642.31
2023-10-20T15:28:10.870Z,93652.63
2023-10-20T15:30:37.394Z,93677.31
2023-10-20T15:33:04.232Z,93680.25
2023-10-20T15:35:30.796Z,93684.91
2023-10-20T15:37:58.368Z,93697.44
2023-10-20T15:40:25.700Z,93676.72
2023-10-20T15:42:52.660Z,93685.56
2023-10-20T15:45:20.226Z,93698.66
2023-10-20T15:47:49.850Z,93720.44
2023-10-20T15:50:16.499Z,93719.72
2023-10-20T15:52:42.966Z,93717.56
2023-10-20T15:55:09.614Z,93722.94
2023-10-20T15:57:36.543Z,93718.78
2023-10-20T16:00:03.270Z,93726.28
2023-10-20T16:02:29.981Z,93735.06
2023-10-20T16:04:56.813Z,93733.50
2023-10-20T16:07:23.347Z,93721.09
2023-10-20T16:09:49.953Z,93733.38
2023-10-20T16:12:16.964Z,93744.47
2023-10-20T16:14:43.824Z,93750.59
2023-10-20T16:17:10.840Z,93755.63
2023-10-20T16:19:37.560Z,93768.91
2023-10-20T16:22:04.799Z,93780.81
2023-10-20T16:24:31.318Z,93771.53
2023-10-20T16:26:59.892Z,93781.88
2023-10-20T16:29:26.661Z,93786.66
2023-10-20T16:31:53.252Z,93794.34
2023-10-20T16:34:24.251Z,93790.63
2023-10-20T16:36:50.831Z,93803.88
2023-10-20T16:39:19.667Z,93799.94
2023-10-20T16:41:46.610Z,93811.06
2023-10-20T16:44:13.739Z,93816.94
2023-10-20T16:46:41.555Z,93824.06
2023-10-20T16:49:08.241Z,93826.72
2023-10-20T16:51:34.908Z,93831.53
2023-10-20T16:54:01.594Z,93830.19
2023-10-20T16:56:28.136Z,93837.38
2023-10-20T16:58:54.705Z,93846.03
2023-10-20T17:01:22.896Z,93855.25
2023-10-20T17:03:49.701Z,93858.94
2023-10-20T17:06:16.462Z,93864.41
2023-10-20T17:08:43.543Z,93862.28
2023-10-20T17:11:11.647Z,93866.50
2023-10-20T17:13:38.205Z,93876.75
2023-10-20T17:16:05.190Z,93871.97
2023-10-20T17:18:32.192Z,93881.75
2023-10-20T17:21:12.945Z,93873.00
2023-10-20T17:23:39.534Z,93876.69
2023-10-20T17:26:06.677Z,93890.94
2023-10-20T17:28:33.659Z,93896.50
2023-10-20T17:31:01.156Z,93909.44
2023-10-20T17:33:27.731Z,93909.16
2023-10-20T17:35:54.761Z,93920.53
2023-10-20T17:38:21.400Z,93924.22
2023-10-20T17:40:48.116Z,93924.22
2023-10-20T17:43:14.659Z,93911.28
2023-10-20T17:45:41.251Z,93921.06
2023-10-20T17:48:08.831Z,93932.72
2023-10-20T17:50:41.585Z,93930.06
2023-10-20T17:53:09.038Z,93934.28
2023-10-20T17:55:38.661Z,93936.94
2023-10-20T17:58:05.207Z,93932.69
2023-10-20T18:00:31.707Z,93925.56
2023-10-20T18:02:58.487Z,93937.22
2023-10-20T18:05:27.661Z,93930.94
2023-10-20T18:07:54.227Z,93934.69
2023-10-20T18:10:20.769Z,93942.63
2023-10-20T18:12:48.067Z,93946.31
2023-10-20T18:15:14.720Z,93955.00
2023-10-20T18:17:41.989Z,93956.59
2023-10-20T18:20:08.915Z,93943.59
2023-10-20T18:22:35.455Z,93963.09
2023-10-20T18:25:02.053Z,93965.50
2023-10-20T18:27:28.590Z,93972.88
2023-10-20T18:29:55.212Z,93972.94
2023-10-20T18:32:22.164Z,93965.03
2023-10-20T18:34:48.752Z,93971.91
2023-10-20T18:37:15.704Z,93977.25
2023-10-20T18:39:42.257Z,93977.25
2023-10-20T18:42:09.028Z,93969.88
2023-10-20T18:44:35.706Z,93969.88
2023-10-20T18:47:02.393Z,93972.59
2023-10-20T18:49:28.932Z,93975.78
2023-10-20T18:51:55.463Z,93977.31
2023-10-20T18:54:22.004Z,93991.28
2023-10-20T18:56:48.573Z,93994.22
2023-10-20T18:59:15.682Z,94005.56
2023-10-20T19:01:42.449Z,94000.81
2023-10-20T19:04:09.128Z,93992.38
2023-10-20T19:06:35.717Z,93991.28
2023-10-20T19:09:04.368Z,93999.75
2023-10-20T19:11:31.867Z,93997.88
2023-10-20T19:13:58.698Z,93998.69
2023-10-20T19:16:25.321Z,93999.22
2023-10-20T19:18:51.929Z,94001.91
2023-10-20T19:21:18.514Z,94008.53
2023-10-20T19:23:45.090Z,94009.59
2023-10-20T19:26:11.892Z,94020.13
2023-10-20T19:28:39.253Z,94023.84
2023-10-20T19:31:08.507Z,94023.84
2023-10-20T19:33:35.637Z,94028.13
2023-10-20T19:36:08.791Z,94036.81
2023-10-20T19:38:35.673Z,94031.81
2023-10-20T19:41:02.211Z,94034.19
2023-10-20T19:43:28.779Z,94032.34
2023-10-20T19:45:56.268Z,94036.06
2023-10-20T19:48:23.091Z,94036.06
2023-10-20T19:50:49.761Z,94058.75
2023-10-20T19:53:16.309Z,94045.00
2023-10-20T19:55:44.211Z,94050.31
2023-10-20T19:58:10.828Z,94057.16
2023-10-20T20:00:37.504Z,94050.84
2023-10-20T20:03:04.472Z,94054.53
2023-10-20T20:05:31.460Z,94057.69
2023-10-20T20:07:58.199Z,94057.16
2023-10-20T20:10:24.799Z,94056.91
2023-10-20T20:12:51.342Z,94056.63
2023-10-20T20:15:18.696Z,94066.13
2023-10-20T20:17:45.575Z,94050.56
2023-10-20T20:20:13.290Z,94060.34
2023-10-20T20:22:39.873Z,94058.75
2023-10-20T20:25:06.629Z,94058.50
2023-10-20T20:27:33.182Z,94059.81
2023-10-20T20:29:59.771Z,94068.75
2023-10-20T20:32:26.348Z,94062.69
2023-10-20T20:34:52.889Z,94065.59
2023-10-20T20:37:20.330Z,94074.56
2023-10-20T20:39:47.009Z,94076.16
2023-10-20T20:42:13.615Z,94089.63
2023-10-20T20:44:40.341Z,94094.63
2023-10-20T20:47:06.951Z,94100.69
2023-10-20T20:49:35.247Z,94098.34
2023-10-20T20:52:02.112Z,94089.38
2023-10-20T20:54:28.690Z,94099.38
2023-10-20T20:56:55.335Z,94097.28
2023-10-20T20:59:21.990Z,94102.56
2023-10-20T21:01:48.533Z,94104.91
2023-10-20T21:04:15.246Z,94104.13
2023-10-20T21:06:41.812Z,94111.25
2023-10-20T21:09:10.262Z,94101.22
2023-10-20T21:11:37.646Z,94110.47
2023-10-20T21:14:04.331Z,94108.34
2023-10-20T21:16:31.981Z,94116.78
2023-10-20T21:19:01.499Z,94110.22
2023-10-20T21:21:28.212Z,94113.13
2023-10-20T21:23:54.818Z,94113.38
2023-10-20T21:26:22.786Z,94114.97
2023-10-20T21:28:49.441Z,94102.84
2023-10-20T21:31:15.939Z,94107.28
2023-10-20T21:33:42.658Z,94114.16
2023-10-20T21:36:13.412Z,94113.88
2023-10-20T21:38:39.971Z,94110.97
2023-10-20T21:41:06.549Z,94114.16
2023-10-20T21:43:33.105Z,94112.81
2023-10-20T21:45:59.722Z,94123.66
2023-10-20T21:48:26.639Z,94118.38
2023-10-20T21:51:00.120Z,94124.94
2023-10-20T21:53:26.989Z,94129.97
2023-10-20T21:56:03.440Z,94124.44
2023-10-20T21:58:30.267Z,94128.13
2023-10-20T22:00:56.925Z,94128.13
2023-10-20T22:03:23.820Z,94130.47
2023-10-20T22:05:53.958Z,94128.88
2023-10-20T22:08:20.719Z,94139.44
2023-10-20T22:10:47.301Z,94133.09
2023-10-20T22:13:13.869Z,94137.06
2023-10-20T22:15:40.578Z,94143.66
2023-10-20T22:18:07.358Z,94127.84
2023-10-20T22:20:34.311Z,94141.81
2023-10-20T22:23:01.047Z,94141.28
2023-10-20T22:25:27.645Z,94142.06
2023-10-20T22:27:54.234Z,94140.75
2023-10-20T22:30:20.796Z,94137.34
2023-10-20T22:32:47.505Z,94147.09
2023-10-20T22:35:14.177Z,94153.41
2023-10-20T22:37:40.952Z,94136.78
2023-10-20T22:40:07.773Z,94152.63
2023-10-20T22:42:34.337Z,94151.31
2023-10-20T22:45:00.877Z,94154.19
2023-10-20T22:47:27.541Z,94146.28
2023-10-20T22:49:54.144Z,94140.50
2023-10-20T22:52:20.709Z,94136.28
2023-10-20T22:54:47.222Z,94146.81
2023-10-20T22:57:13.816Z,94159.00
2023-10-20T22:59:40.508Z,94155.00
2023-10-20T23:02:07.135Z,94151.63
2023-10-20T23:04:33.974Z,94152.66
2023-10-20T23:07:00.619Z,94160.59
2023-10-20T23:09:27.194Z,94157.94
2023-10-20T23:11:54.126Z,94169.56
2023-10-20T23:14:20.670Z,94171.41
2023-10-20T23:16:47.312Z,94162.69
2023-10-20T23:19:14.056Z,94162.91
2023-10-20T23:21:40.606Z,94162.38
2023-10-20T23:24:07.543Z,94169.50
2023-10-20T23:26:34.203Z,94171.09
2023-10-20T23:29:00.873Z,94170.03
2023-10-20T23:31:27.563Z,94169.03
2023-10-20T23:33:54.309Z,94169.28
2023-10-20T23:36:20.859Z,94160.06
2023-10-20T23:38:54.198Z,94170.59
2023-10-20T23:41:20.717Z,94167.44
2023-10-20T23:43:47.356Z,94156.91
2023-10-20T23:46:13.876Z,94163.75
2023-10-20T23:48:40.663Z,94167.47
2023-10-20T23:51:07.341Z,94159.56
2023-10-20T23:53:33.889Z,94161.69
2023-10-20T23:56:00.505Z,94159.31
2023-10-20T23:58:27.060Z,94155.06
